createdAt,value
2024-04-25T00:02:40.381Z,100.00
2024-04-25T00:06:43.193Z,100.00
2024-04-25T00:10:53.115Z,100.00
2024-04-25T00:14:55.853Z,100.00
2024-04-25T00:18:58.888Z,100.00
2024-04-25T00:23:01.729Z,100.00
2024-04-25T00:27:04.429Z,100.00
2024-04-25T00:31:07.375Z,100.00
2024-04-25T00:35:10.197Z,100.00
2024-04-25T00:39:12.933Z,100.00
2024-04-25T00:43:15.718Z,100.00
2024-04-25T00:47:24.074Z,98.96
2024-04-25T00:51:27.025Z,98.95
2024-04-25T00:55:30.145Z,99.68
2024-04-25T00:59:35.474Z,99.66
2024-04-25T01:03:39.521Z,100.00
2024-04-25T01:07:42.288Z,99.74
2024-04-25T01:11:45.268Z,99.35
2024-04-25T01:15:48.151Z,99.11
2024-04-25T01:19:50.975Z,99.33
2024-04-25T01:23:56.595Z,99.06
2024-04-25T01:27:59.536Z,98.92
2024-04-25T01:32:06.406Z,99.05
2024-04-25T01:36:09.410Z,99.27
2024-04-25T01:40:12.235Z,99.29
2024-04-25T01:44:15.091Z,99.82
2024-04-25T01:48:18.057Z,100.00
2024-04-25T01:52:21.036Z,99.69
2024-04-25T01:56:23.844Z,99.24
2024-04-25T02:00:26.591Z,98.56
2024-04-25T02:04:29.413Z,97.80
2024-04-25T02:08:32.651Z,96.46
2024-04-25T02:12:35.349Z,95.83
2024-04-25T02:16:38.241Z,97.04
2024-04-25T02:20:59.595Z,98.64
2024-04-25T02:25:18.088Z,99.88
2024-04-25T02:29:21.323Z,99.86
2024-04-25T02:33:24.237Z,99.92
2024-04-25T02:37:27.150Z,100.00
2024-04-25T02:41:30.086Z,100.00
2024-04-25T02:45:32.817Z,100.00
2024-04-25T02:49:35.670Z,100.00
2024-04-25T02:53:38.444Z,100.00
2024-04-25T02:57:41.360Z,100.00
2024-04-25T03:01:44.281Z,100.00
2024-04-25T03:05:47.113Z,100.00
2024-04-25T03:09:49.857Z,100.00
2024-04-25T03:13:52.672Z,100.00
2024-04-25T03:17:55.530Z,100.00
2024-04-25T03:21:58.340Z,100.00
2024-04-25T03:26:01.148Z,100.00
2024-04-25T03:30:04.111Z,100.00
2024-04-25T03:34:06.897Z,100.00
2024-04-25T03:38:09.734Z,100.00
2024-04-25T03:42:12.847Z,100.00
2024-04-25T03:46:16.166Z,100.00
2024-04-25T03:50:21.936Z,100.00
2024-04-25T03:54:27.271Z,100.00
2024-04-25T03:58:30.034Z,100.00
2024-04-25T04:02:32.856Z,100.00
2024-04-25T04:06:35.666Z,100.00
2024-04-25T04:10:38.425Z,100.00
2024-04-25T04:14:42.246Z,100.00
2024-04-25T04:18:44.991Z,100.00
2024-04-25T04:22:47.682Z,100.00
2024-04-25T04:26:50.475Z,100.00
2024-04-25T04:30:53.339Z,100.00
2024-04-25T04:34:56.135Z,100.00
2024-04-25T04:38:59.278Z,100.00
2024-04-25T04:43:02.165Z,100.00
2024-04-25T04:47:05.038Z,100.00
2024-04-25T04:51:07.993Z,100.00
2024-04-25T04:55:10.854Z,100.00
2024-04-25T04:59:13.665Z,100.00
2024-04-25T05:03:16.525Z,100.00
2024-04-25T05:07:19.398Z,97.12
2024-04-25T05:11:22.398Z,90.32
2024-04-25T05:15:25.483Z,85.07
2024-04-25T05:19:28.205Z,81.53
2024-04-25T05:23:31.063Z,79.80
2024-04-25T05:27:37.787Z,75.05
2024-04-25T05:31:40.939Z,74.50
2024-04-25T05:35:44.559Z,75.12
2024-04-25T05:39:47.331Z,76.41
2024-04-25T05:43:50.448Z,75.02
2024-04-25T05:47:53.329Z,73.59
2024-04-25T05:51:56.502Z,71.82
2024-04-25T05:56:00.038Z,73.60
2024-04-25T06:00:03.351Z,77.38
2024-04-25T06:04:06.330Z,80.53
2024-04-25T06:08:09.138Z,81.80
2024-04-25T06:12:12.332Z,83.55
2024-04-25T06:16:15.193Z,85.46
2024-04-25T06:20:20.485Z,89.11
2024-04-25T06:24:23.322Z,88.44
2024-04-25T06:28:26.066Z,84.44
2024-04-25T06:32:29.209Z,77.96
2024-04-25T06:36:35.752Z,74.76
2024-04-25T06:40:38.721Z,72.97
2024-04-25T06:44:47.438Z,71.19
2024-04-25T06:48:57.439Z,68.60
2024-04-25T06:53:00.701Z,67.24
2024-04-25T06:57:04.855Z,65.03
2024-04-25T07:01:08.109Z,65.31
2024-04-25T07:05:11.140Z,63.63
2024-04-25T07:09:14.018Z,64.58
2024-04-25T07:13:17.453Z,64.39
2024-04-25T07:17:20.377Z,62.73
2024-04-25T07:21:24.618Z,63.22
2024-04-25T07:25:27.396Z,60.71
2024-04-25T07:29:32.287Z,61.55
2024-04-25T07:33:36.582Z,60.89
2024-04-25T07:37:39.420Z,59.98
2024-04-25T07:41:42.514Z,60.69
2024-04-25T07:45:47.301Z,58.52
2024-04-25T07:49:53.182Z,60.07
2024-04-25T07:53:56.211Z,59.84
2024-04-25T07:57:58.961Z,57.59
2024-04-25T08:02:01.785Z,57.43
2024-04-25T08:06:05.126Z,57.17
2024-04-25T08:10:08.905Z,57.74
2024-04-25T08:14:11.758Z,56.91
2024-04-25T08:18:14.986Z,58.56
2024-04-25T08:22:17.974Z,58.74
2024-04-25T08:26:24.568Z,58.41
2024-04-25T08:30:27.418Z,58.85
2024-04-25T08:34:30.205Z,59.92
2024-04-25T08:38:35.641Z,58.30
2024-04-25T08:42:38.949Z,57.32
2024-04-25T08:46:43.980Z,57.99
2024-04-25T08:50:49.066Z,60.11
2024-04-25T08:54:53.050Z,60.55
2024-04-25T08:58:56.563Z,62.07
2024-04-25T09:03:01.112Z,63.31
2024-04-25T09:07:11.570Z,72.68
2024-04-25T09:11:21.276Z,81.61
2024-04-25T09:15:27.049Z,86.59
2024-04-25T09:19:29.938Z,87.50
2024-04-25T09:23:40.125Z,83.67
2024-04-25T09:27:42.893Z,87.73
2024-04-25T09:31:45.797Z,80.13
2024-04-25T09:35:51.598Z,78.14
2024-04-25T09:39:58.308Z,80.56
2024-04-25T09:44:05.035Z,77.65
2024-04-25T09:48:15.491Z,77.13
2024-04-25T09:52:32.352Z,79.21
2024-04-25T09:56:38.240Z,85.28
2024-04-25T10:00:41.875Z,86.97
2024-04-25T10:04:45.228Z,82.13
2024-04-25T10:08:48.603Z,83.07
2024-04-25T10:12:53.098Z,77.07
2024-04-25T10:16:55.866Z,72.26
2024-04-25T10:20:59.913Z,73.88
2024-04-25T10:25:06.097Z,71.84
2024-04-25T10:29:08.870Z,75.21
2024-04-25T10:33:11.654Z,73.43
2024-04-25T10:37:14.989Z,72.44
2024-04-25T10:41:17.740Z,74.10
2024-04-25T10:45:20.711Z,74.28
2024-04-25T10:49:23.655Z,69.88
2024-04-25T10:53:26.721Z,71.86
2024-04-25T10:57:31.135Z,70.72
2024-04-25T11:01:34.076Z,68.16
2024-04-25T11:05:41.574Z,66.69
2024-04-25T11:09:44.351Z,68.88
2024-04-25T11:13:47.349Z,66.31
2024-04-25T11:18:00.701Z,64.13
2024-04-25T11:22:14.691Z,62.79
2024-04-25T11:26:21.588Z,65.71
2024-04-25T11:30:25.864Z,64.18
2024-04-25T11:34:28.660Z,63.50
2024-04-25T11:38:31.894Z,59.12
2024-04-25T11:42:34.758Z,60.05
2024-04-25T11:46:37.538Z,55.03
2024-04-25T11:50:40.485Z,54.87
2024-04-25T11:54:43.232Z,54.31
2024-04-25T11:58:46.223Z,56.38
2024-04-25T12:02:49.583Z,57.00
2024-04-25T12:06:53.163Z,58.80
2024-04-25T12:10:56.030Z,58.98
2024-04-25T12:15:00.710Z,60.97
2024-04-25T12:19:03.743Z,61.25
2024-04-25T12:23:06.984Z,65.20
2024-04-25T12:27:09.981Z,71.44
2024-04-25T12:31:13.545Z,86.03
2024-04-25T12:35:16.621Z,91.03
2024-04-25T12:39:22.651Z,99.26
2024-04-25T12:43:28.073Z,100.00
2024-04-25T12:47:31.199Z,100.00
2024-04-25T12:51:34.194Z,100.00
2024-04-25T12:55:37.287Z,100.00
2024-04-25T12:59:40.323Z,100.00
2024-04-25T13:03:43.801Z,100.00
2024-04-25T13:07:46.657Z,100.00
2024-04-25T13:11:49.366Z,100.00
2024-04-25T13:15:52.140Z,99.72
2024-04-25T13:19:55.030Z,100.00
2024-04-25T13:23:57.866Z,99.19
2024-04-25T13:28:00.705Z,96.77
2024-04-25T13:32:03.666Z,93.42
2024-04-25T13:36:07.120Z,95.80
2024-04-25T13:40:10.265Z,88.11
2024-04-25T13:44:13.305Z,90.85
2024-04-25T13:48:16.343Z,84.54
2024-04-25T13:52:19.292Z,83.54
2024-04-25T13:56:22.491Z,81.68
2024-04-25T14:00:25.750Z,86.17
2024-04-25T14:04:28.979Z,84.59
2024-04-25T14:08:31.935Z,86.67
2024-04-25T14:12:34.783Z,79.04
2024-04-25T14:16:37.814Z,79.52
2024-04-25T14:20:40.652Z,75.53
2024-04-25T14:24:46.827Z,75.86
2024-04-25T14:28:54.074Z,78.20
2024-04-25T14:32:57.283Z,78.38
2024-04-25T14:37:00.581Z,78.21
2024-04-25T14:41:08.182Z,80.59
2024-04-25T14:45:12.693Z,79.37
2024-04-25T14:49:15.694Z,81.10
2024-04-25T14:53:18.816Z,80.92
2024-04-25T14:57:21.951Z,87.94
2024-04-25T15:01:25.103Z,85.06
2024-04-25T15:05:28.461Z,82.51
2024-04-25T15:09:31.585Z,83.57
2024-04-25T15:13:34.881Z,81.27
2024-04-25T15:17:40.203Z,78.01
2024-04-25T15:21:46.259Z,76.05
2024-04-25T15:25:49.345Z,70.68
2024-04-25T15:29:52.426Z,69.56
2024-04-25T15:38:46.751Z,72.73
2024-04-25T15:43:36.135Z,73.54
2024-04-25T16:12:52.192Z,71.58
2024-04-25T16:26:30.958Z,69.90
2024-04-25T16:30:57.611Z,68.48
2024-04-25T16:35:50.209Z,68.94
2024-04-25T16:45:31.954Z,68.07
2024-04-25T16:49:53.317Z,69.42
2024-04-25T16:54:01.650Z,70.81
2024-04-25T16:58:27.525Z,70.44
2024-04-25T17:02:34.033Z,69.41
2024-04-25T17:06:59.542Z,71.36
2024-04-25T17:11:29.696Z,71.17
2024-04-25T17:20:41.039Z,71.61
2024-04-25T17:29:50.428Z,75.26
2024-04-25T17:34:10.451Z,74.00
2024-04-25T17:38:33.310Z,74.88
2024-04-25T17:42:57.407Z,73.82
2024-04-25T17:47:11.420Z,72.67
2024-04-25T18:00:54.730Z,75.83
2024-04-25T18:05:03.113Z,79.14
2024-04-25T18:09:24.524Z,81.02
2024-04-25T18:13:31.009Z,80.37
2024-04-25T18:18:10.779Z,80.61
2024-04-25T18:27:23.295Z,81.65
2024-04-25T18:31:29.470Z,81.45
2024-04-25T18:35:39.060Z,81.81
2024-04-25T18:39:56.895Z,81.82
2024-04-25T18:44:36.890Z,83.26
2024-04-25T18:48:40.715Z,84.53
2024-04-25T18:52:47.376Z,87.52
2024-04-25T19:01:23.717Z,89.08
2024-04-25T19:05:27.000Z,89.57
2024-04-25T19:10:06.116Z,90.33
2024-04-25T19:18:44.667Z,92.24
2024-04-25T19:22:47.786Z,92.47
2024-04-25T19:26:51.281Z,93.35
2024-04-25T19:30:55.250Z,94.35
2024-04-25T19:34:58.781Z,93.42
2024-04-25T19:39:04.423Z,94.22
2024-04-25T19:43:07.798Z,94.91
2024-04-25T19:47:11.461Z,95.33
2024-04-25T19:51:14.401Z,94.68
2024-04-25T19:55:17.562Z,94.32
2024-04-25T19:59:21.895Z,96.19
2024-04-25T20:03:25.970Z,98.29
2024-04-25T20:07:31.848Z,98.93
2024-04-25T20:11:35.538Z,99.64
2024-04-25T20:15:38.645Z,98.85
2024-04-25T20:19:59.763Z,97.90
2024-04-25T20:24:05.163Z,97.90
2024-04-25T20:28:08.586Z,97.89
2024-04-25T20:32:11.344Z,96.48
2024-04-25T20:36:15.222Z,95.70
2024-04-25T20:40:18.015Z,96.75
2024-04-25T20:44:20.903Z,97.16
2024-04-25T20:48:23.948Z,96.76
2024-04-25T20:52:30.174Z,96.38
2024-04-25T20:56:32.992Z,95.94
2024-04-25T21:00:36.177Z,95.80
2024-04-25T21:04:39.438Z,95.24
2024-04-25T21:08:43.549Z,96.29
2024-04-25T21:12:47.036Z,95.60
2024-04-25T21:16:51.826Z,95.05
2024-04-25T21:20:54.975Z,94.90
2024-04-25T21:24:58.135Z,95.28
2024-04-25T21:29:01.131Z,95.94
2024-04-25T21:33:04.317Z,97.55
2024-04-25T21:37:07.464Z,99.62
2024-04-25T21:41:10.615Z,100.00
2024-04-25T21:45:13.514Z,100.00
2024-04-25T21:49:16.645Z,100.00
2024-04-25T21:53:21.191Z,100.00
2024-04-25T21:57:24.528Z,100.00
2024-04-25T22:01:30.542Z,100.00
2024-04-25T22:05:33.475Z,100.00
2024-04-25T22:09:36.454Z,100.00
2024-04-25T22:13:39.455Z,100.00
2024-04-25T22:17:42.505Z,100.00
2024-04-25T22:21:49.877Z,100.00
2024-04-25T22:25:54.027Z,100.00
2024-04-25T22:29:56.822Z,100.00
2024-04-25T22:33:59.705Z,100.00
2024-04-25T22:38:02.686Z,100.00
2024-04-25T22:42:05.729Z,100.00
2024-04-25T22:46:10.514Z,100.00
2024-04-25T22:50:13.347Z,100.00
2024-04-25T22:54:16.173Z,100.00
2024-04-25T22:58:19.097Z,100.00
2024-04-25T23:02:22.105Z,100.00
2024-04-25T23:06:25.019Z,100.00
2024-04-25T23:10:27.894Z,100.00
2024-04-25T23:14:30.870Z,100.00
2024-04-25T23:18:33.653Z,100.00
2024-04-25T23:22:36.426Z,100.00
2024-04-25T23:26:40.246Z,100.00
2024-04-25T23:30:43.553Z,99.76
2024-04-25T23:34:46.466Z,99.14
2024-04-25T23:38:50.357Z,99.87
2024-04-25T23:42:53.183Z,100.00
2024-04-25T23:46:56.163Z,100.00
2024-04-25T23:51:03.954Z,100.00
2024-04-25T23:55:06.971Z,100.00
2024-04-25T23:59:09.835Z,100.00
